sensor_id;sensor_type;location;lat;lon;timestamp;temperature;humidity
71142;DHT22;58808;59.366;17.970;2023-02-03T00:02:23;-4.70;99.90
71142;DHT22;58808;59.366;17.970;2023-02-03T00:04:49;-4.70;99.90
71142;DHT22;58808;59.366;17.970;2023-02-03T00:07:15;-4.70;99.90
71142;DHT22;58808;59.366;17.970;2023-02-03T00:09:40;-4.70;99.90
71142;DHT22;58808;59.366;17.970;2023-02-03T00:12:06;-4.70;99.90
71142;DHT22;58808;59.366;17.970;2023-02-03T00:14:33;-4.70;99.90
71142;DHT22;58808;59.366;17.970;2023-02-03T00:16:58;-4.60;99.90
71142;DHT22;58808;59.366;17.970;2023-02-03T00:19:24;-4.60;99.90
71142;DHT22;58808;59.366;17.970;2023-02-03T00:21:50;-4.60;99.90
71142;DHT22;58808;59.366;17.970;2023-02-03T00:24:16;-4.60;99.90
71142;DHT22;58808;59.366;17.970;2023-02-03T00:26:44;-4.60;99.90
71142;DHT22;58808;59.366;17.970;2023-02-03T00:29:10;-4.60;99.90
71142;DHT22;58808;59.366;17.970;2023-02-03T00:31:36;-4.70;99.90
71142;DHT22;58808;59.366;17.970;2023-02-03T00:34:02;-4.70;99.90
71142;DHT22;58808;59.366;17.970;2023-02-03T00:36:28;-4.70;99.90
71142;DHT22;58808;59.366;17.970;2023-02-03T00:38:53;-4.70;99.90
71142;DHT22;58808;59.366;17.970;2023-02-03T00:41:20;-4.60;99.90
71142;DHT22;58808;59.366;17.970;2023-02-03T00:43:46;-4.60;99.90
71142;DHT22;58808;59.366;17.970;2023-02-03T00:46:12;-4.60;99.90
71142;DHT22;58808;59.366;17.970;2023-02-03T00:48:38;-4.70;99.90
71142;DHT22;58808;59.366;17.970;2023-02-03T00:51:04;-4.80;99.90
71142;DHT22;58808;59.366;17.970;2023-02-03T00:53:30;-4.80;99.90
71142;DHT22;58808;59.366;17.970;2023-02-03T00:55:56;-4.80;99.90
71142;DHT22;58808;59.366;17.970;2023-02-03T00:58:21;-4.80;99.90
71142;DHT22;58808;59.366;17.970;2023-02-03T01:00:47;-4.80;99.90
71142;DHT22;58808;59.366;17.970;2023-02-03T01:03:15;-4.80;99.90
71142;DHT22;58808;59.366;17.970;2023-02-03T01:05:40;-4.80;99.90
71142;DHT22;58808;59.366;17.970;2023-02-03T01:08:06;-4.90;99.90
71142;DHT22;58808;59.366;17.970;2023-02-03T01:10:32;-4.90;99.90
71142;DHT22;58808;59.366;17.970;2023-02-03T01:12:58;-5.00;99.90
71142;DHT22;58808;59.366;17.970;2023-02-03T01:15:24;-5.00;99.90
71142;DHT22;58808;59.366;17.970;2023-02-03T01:17:49;-5.00;99.90
71142;DHT22;58808;59.366;17.970;2023-02-03T01:20:15;-4.90;99.90
71142;DHT22;58808;59.366;17.970;2023-02-03T01:22:41;-5.00;99.90
71142;DHT22;58808;59.366;17.970;2023-02-03T01:25:07;-5.00;99.90
71142;DHT22;58808;59.366;17.970;2023-02-03T01:27:33;-4.90;99.90
71142;DHT22;58808;59.366;17.970;2023-02-03T01:29:59;-4.90;99.90
71142;DHT22;58808;59.366;17.970;2023-02-03T01:32:26;-4.90;99.90
71142;DHT22;58808;59.366;17.970;2023-02-03T01:34:51;-4.90;99.90
71142;DHT22;58808;59.366;17.970;2023-02-03T01:37:17;-4.90;99.90
71142;DHT22;58808;59.366;17.970;2023-02-03T01:39:43;-4.80;99.90
71142;DHT22;58808;59.366;17.970;2023-02-03T01:42:13;-4.80;99.90
71142;DHT22;58808;59.366;17.970;2023-02-03T01:44:47;-4.80;99.90
71142;DHT22;58808;59.366;17.970;2023-02-03T01:49:46;-4.90;99.90
71142;DHT22;58808;59.366;17.970;2023-02-03T01:52:14;-4.90;99.90
71142;DHT22;58808;59.366;17.970;2023-02-03T01:54:43;-4.90;99.90
71142;DHT22;58808;59.366;17.970;2023-02-03T01:57:16;-4.90;99.90
71142;DHT22;58808;59.366;17.970;2023-02-03T01:59:43;-5.00;99.90
71142;DHT22;58808;59.366;17.970;2023-02-03T02:02:10;-5.10;99.90
71142;DHT22;58808;59.366;17.970;2023-02-03T02:04:53;-5.10;99.90
71142;DHT22;58808;59.366;17.970;2023-02-03T02:07:20;-5.10;99.90
71142;DHT22;58808;59.366;17.970;2023-02-03T02:09:46;-5.10;99.90
71142;DHT22;58808;59.366;17.970;2023-02-03T02:12:12;-5.20;99.90
71142;DHT22;58808;59.366;17.970;2023-02-03T02:14:38;-5.20;99.90
71142;DHT22;58808;59.366;17.970;2023-02-03T02:17:14;-5.10;99.90
71142;DHT22;58808;59.366;17.970;2023-02-03T02:20:03;-5.10;99.90
71142;DHT22;58808;59.366;17.970;2023-02-03T02:25:38;-5.20;99.90
71142;DHT22;58808;59.366;17.970;2023-02-03T02:39:22;-5.10;99.90
71142;DHT22;58808;59.366;17.970;2023-02-03T02:41:59;-5.20;99.90
71142;DHT22;58808;59.366;17.970;2023-02-03T02:44:33;-5.20;99.90
71142;DHT22;58808;59.366;17.970;2023-02-03T02:47:21;-5.20;99.90
71142;DHT22;58808;59.366;17.970;2023-02-03T02:52:30;-5.20;99.90
71142;DHT22;58808;59.366;17.970;2023-02-03T02:55:02;-5.20;99.90
71142;DHT22;58808;59.366;17.970;2023-02-03T02:57:31;-5.10;99.90
71142;DHT22;58808;59.366;17.970;2023-02-03T02:59:59;-5.10;99.90
71142;DHT22;58808;59.366;17.970;2023-02-03T03:02:31;-5.10;99.90
71142;DHT22;58808;59.366;17.970;2023-02-03T03:04:58;-5.10;99.90
71142;DHT22;58808;59.366;17.970;2023-02-03T03:07:26;-5.10;99.90
71142;DHT22;58808;59.366;17.970;2023-02-03T03:09:56;-5.20;99.90
71142;DHT22;58808;59.366;17.970;2023-02-03T03:12:28;-5.20;99.90
71142;DHT22;58808;59.366;17.970;2023-02-03T03:15:09;-5.20;99.90
71142;DHT22;58808;59.366;17.970;2023-02-03T03:17:46;-5.30;99.90
71142;DHT22;58808;59.366;17.970;2023-02-03T03:20:18;-5.30;99.90
71142;DHT22;58808;59.366;17.970;2023-02-03T03:22:50;-5.30;99.90
71142;DHT22;58808;59.366;17.970;2023-02-03T03:25:22;-5.40;99.90
71142;DHT22;58808;59.366;17.970;2023-02-03T03:27:53;-5.40;99.90
71142;DHT22;58808;59.366;17.970;2023-02-03T03:30:23;-5.40;99.90
71142;DHT22;58808;59.366;17.970;2023-02-03T03:32:50;-5.50;99.90
71142;DHT22;58808;59.366;17.970;2023-02-03T03:35:16;-5.50;99.90
71142;DHT22;58808;59.366;17.970;2023-02-03T03:37:55;-5.50;99.90
71142;DHT22;58808;59.366;17.970;2023-02-03T03:40:42;-5.50;99.90
71142;DHT22;58808;59.366;17.970;2023-02-03T03:43:21;-5.60;99.90
71142;DHT22;58808;59.366;17.970;2023-02-03T03:45:51;-5.50;99.90
71142;DHT22;58808;59.366;17.970;2023-02-03T03:48:28;-5.50;99.90
71142;DHT22;58808;59.366;17.970;2023-02-03T03:51:17;-5.50;99.90
71142;DHT22;58808;59.366;17.970;2023-02-03T03:53:43;-5.50;99.90
71142;DHT22;58808;59.366;17.970;2023-02-03T03:56:16;-5.50;99.90
71142;DHT22;58808;59.366;17.970;2023-02-03T03:58:46;-5.60;99.90
71142;DHT22;58808;59.366;17.970;2023-02-03T04:01:14;-5.60;99.90
71142;DHT22;58808;59.366;17.970;2023-02-03T04:03:45;-5.60;99.90
71142;DHT22;58808;59.366;17.970;2023-02-03T04:06:12;-5.60;99.90
71142;DHT22;58808;59.366;17.970;2023-02-03T04:08:38;-5.60;99.90
71142;DHT22;58808;59.366;17.970;2023-02-03T04:11:04;-5.70;99.90
71142;DHT22;58808;59.366;17.970;2023-02-03T04:13:30;-5.60;99.90
71142;DHT22;58808;59.366;17.970;2023-02-03T04:15:56;-5.60;99.90
71142;DHT22;58808;59.366;17.970;2023-02-03T04:18:22;-5.70;99.90
71142;DHT22;58808;59.366;17.970;2023-02-03T04:20:48;-5.60;99.90
71142;DHT22;58808;59.366;17.970;2023-02-03T04:23:14;-5.70;99.90
71142;DHT22;58808;59.366;17.970;2023-02-03T04:25:40;-5.70;99.90
71142;DHT22;58808;59.366;17.970;2023-02-03T04:28:06;-5.70;99.90
71142;DHT22;58808;59.366;17.970;2023-02-03T04:30:32;-5.70;99.90
71142;DHT22;58808;59.366;17.970;2023-02-03T04:32:57;-5.70;99.90
71142;DHT22;58808;59.366;17.970;2023-02-03T04:35:24;-5.70;99.90
71142;DHT22;58808;59.366;17.970;2023-02-03T04:37:50;-5.70;99.90
71142;DHT22;58808;59.366;17.970;2023-02-03T04:40:15;-5.70;99.90
71142;DHT22;58808;59.366;17.970;2023-02-03T04:42:41;-5.80;99.90
71142;DHT22;58808;59.366;17.970;2023-02-03T04:45:09;-5.80;99.90
71142;DHT22;58808;59.366;17.970;2023-02-03T04:47:35;-5.80;99.90
71142;DHT22;58808;59.366;17.970;2023-02-03T04:50:01;-5.80;99.90
71142;DHT22;58808;59.366;17.970;2023-02-03T04:52:27;-5.80;99.90
71142;DHT22;58808;59.366;17.970;2023-02-03T04:54:52;-5.80;99.90
71142;DHT22;58808;59.366;17.970;2023-02-03T04:57:18;-5.80;99.90
71142;DHT22;58808;59.366;17.970;2023-02-03T04:59:44;-5.90;99.90
71142;DHT22;58808;59.366;17.970;2023-02-03T05:02:09;-5.90;99.90
71142;DHT22;58808;59.366;17.970;2023-02-03T05:04:35;-5.90;99.90
71142;DHT22;58808;59.366;17.970;2023-02-03T05:07:01;-5.90;99.90
71142;DHT22;58808;59.366;17.970;2023-02-03T05:09:27;-5.90;99.90
71142;DHT22;58808;59.366;17.970;2023-02-03T05:11:53;-5.90;99.90
71142;DHT22;58808;59.366;17.970;2023-02-03T05:14:19;-5.90;99.90
71142;DHT22;58808;59.366;17.970;2023-02-03T05:16:46;-5.90;99.90
71142;DHT22;58808;59.366;17.970;2023-02-03T05:19:11;-5.90;99.90
71142;DHT22;58808;59.366;17.970;2023-02-03T05:21:37;-5.90;99.90
71142;DHT22;58808;59.366;17.970;2023-02-03T05:24:03;-5.90;99.90
71142;DHT22;58808;59.366;17.970;2023-02-03T05:26:33;-5.80;99.90
71142;DHT22;58808;59.366;17.970;2023-02-03T05:28:59;-5.80;99.90
71142;DHT22;58808;59.366;17.970;2023-02-03T05:31:25;-5.80;99.90
71142;DHT22;58808;59.366;17.970;2023-02-03T05:33:51;-5.80;99.90
71142;DHT22;58808;59.366;17.970;2023-02-03T05:36:16;-5.80;99.90
71142;DHT22;58808;59.366;17.970;2023-02-03T05:38:42;-5.80;99.90
71142;DHT22;58808;59.366;17.970;2023-02-03T05:41:10;-5.80;99.90
71142;DHT22;58808;59.366;17.970;2023-02-03T05:43:55;-5.80;99.90
71142;DHT22;58808;59.366;17.970;2023-02-03T05:46:20;-5.80;99.90
71142;DHT22;58808;59.366;17.970;2023-02-03T05:48:46;-5.80;99.90
71142;DHT22;58808;59.366;17.970;2023-02-03T05:51:12;-5.80;99.90
71142;DHT22;58808;59.366;17.970;2023-02-03T05:53:38;-5.80;99.90
71142;DHT22;58808;59.366;17.970;2023-02-03T05:56:04;-5.70;99.90
71142;DHT22;58808;59.366;17.970;2023-02-03T05:58:30;-5.70;99.90
71142;DHT22;58808;59.366;17.970;2023-02-03T06:00:55;-5.70;99.90
71142;DHT22;58808;59.366;17.970;2023-02-03T06:03:21;-5.60;99.90
71142;DHT22;58808;59.366;17.970;2023-02-03T06:05:47;-5.40;99.90
71142;DHT22;58808;59.366;17.970;2023-02-03T06:08:13;-5.30;99.90
71142;DHT22;58808;59.366;17.970;2023-02-03T06:10:38;-5.20;99.90
71142;DHT22;58808;59.366;17.970;2023-02-03T06:13:12;-5.10;99.90
71142;DHT22;58808;59.366;17.970;2023-02-03T06:15:38;-5.10;99.90
71142;DHT22;58808;59.366;17.970;2023-02-03T06:18:04;-5.30;99.90
71142;DHT22;58808;59.366;17.970;2023-02-03T06:20:30;-5.30;99.90
71142;DHT22;58808;59.366;17.970;2023-02-03T06:22:56;-5.30;99.90
71142;DHT22;58808;59.366;17.970;2023-02-03T06:25:22;-5.10;99.90
71142;DHT22;58808;59.366;17.970;2023-02-03T06:27:49;-5.10;99.90
71142;DHT22;58808;59.366;17.970;2023-02-03T06:30:15;-5.00;99.90
71142;DHT22;58808;59.366;17.970;2023-02-03T06:32:41;-5.00;99.90
71142;DHT22;58808;59.366;17.970;2023-02-03T06:35:07;-5.00;99.90
71142;DHT22;58808;59.366;17.970;2023-02-03T06:37:33;-4.90;99.90
71142;DHT22;58808;59.366;17.970;2023-02-03T06:40:00;-4.90;99.90
71142;DHT22;58808;59.366;17.970;2023-02-03T06:42:26;-4.90;99.90
71142;DHT22;58808;59.366;17.970;2023-02-03T06:44:52;-5.00;99.90
71142;DHT22;58808;59.366;17.970;2023-02-03T06:47:18;-5.00;99.90
71142;DHT22;58808;59.366;17.970;2023-02-03T06:49:43;-5.00;99.90
71142;DHT22;58808;59.366;17.970;2023-02-03T06:52:09;-5.10;99.90
71142;DHT22;58808;59.366;17.970;2023-02-03T06:54:35;-5.10;99.90
71142;DHT22;58808;59.366;17.970;2023-02-03T06:57:00;-5.20;99.90
71142;DHT22;58808;59.366;17.970;2023-02-03T06:59:26;-5.20;99.90
71142;DHT22;58808;59.366;17.970;2023-02-03T07:01:52;-5.20;99.90
71142;DHT22;58808;59.366;17.970;2023-02-03T07:04:18;-5.30;99.90
71142;DHT22;58808;59.366;17.970;2023-02-03T07:06:43;-5.30;99.90
71142;DHT22;58808;59.366;17.970;2023-02-03T07:09:09;-5.30;99.90
71142;DHT22;58808;59.366;17.970;2023-02-03T07:11:35;-5.30;99.90
71142;DHT22;58808;59.366;17.970;2023-02-03T07:14:01;-5.30;99.90
71142;DHT22;58808;59.366;17.970;2023-02-03T07:16:26;-5.30;99.90
71142;DHT22;58808;59.366;17.970;2023-02-03T07:18:52;-5.30;99.90
71142;DHT22;58808;59.366;17.970;2023-02-03T07:21:18;-5.30;99.90
71142;DHT22;58808;59.366;17.970;2023-02-03T07:23:47;-5.30;99.90
71142;DHT22;58808;59.366;17.970;2023-02-03T07:26:14;-5.30;99.90
71142;DHT22;58808;59.366;17.970;2023-02-03T07:28:39;-5.30;99.90
71142;DHT22;58808;59.366;17.970;2023-02-03T07:31:05;-5.20;99.90
71142;DHT22;58808;59.366;17.970;2023-02-03T07:33:35;-5.30;99.90
71142;DHT22;58808;59.366;17.970;2023-02-03T07:36:01;-5.20;99.90
71142;DHT22;58808;59.366;17.970;2023-02-03T07:38:27;-5.20;99.90
71142;DHT22;58808;59.366;17.970;2023-02-03T07:40:54;-5.20;99.90
71142;DHT22;58808;59.366;17.970;2023-02-03T07:43:20;-5.20;99.90
71142;DHT22;58808;59.366;17.970;2023-02-03T07:45:46;-5.20;99.90
71142;DHT22;58808;59.366;17.970;2023-02-03T07:48:12;-5.10;99.90
71142;DHT22;58808;59.366;17.970;2023-02-03T07:50:38;-5.20;99.90
71142;DHT22;58808;59.366;17.970;2023-02-03T07:53:04;-5.10;99.90
71142;DHT22;58808;59.366;17.970;2023-02-03T07:55:30;-5.00;99.90
71142;DHT22;58808;59.366;17.970;2023-02-03T07:57:56;-5.00;99.90
71142;DHT22;58808;59.366;17.970;2023-02-03T08:00:22;-4.90;99.90
71142;DHT22;58808;59.366;17.970;2023-02-03T08:02:48;-4.80;99.90
71142;DHT22;58808;59.366;17.970;2023-02-03T08:05:15;-4.80;99.90
71142;DHT22;58808;59.366;17.970;2023-02-03T08:07:41;-4.70;99.90
71142;DHT22;58808;59.366;17.970;2023-02-03T08:10:08;-4.70;99.90
71142;DHT22;58808;59.366;17.970;2023-02-03T08:12:34;-4.60;99.90
71142;DHT22;58808;59.366;17.970;2023-02-03T08:15:00;-4.60;99.90
71142;DHT22;58808;59.366;17.970;2023-02-03T08:17:26;-4.60;99.90
71142;DHT22;58808;59.366;17.970;2023-02-03T08:19:52;-4.50;99.90
71142;DHT22;58808;59.366;17.970;2023-02-03T08:22:18;-4.50;99.90
71142;DHT22;58808;59.366;17.970;2023-02-03T08:24:47;-4.40;99.90
71142;DHT22;58808;59.366;17.970;2023-02-03T08:27:15;-4.40;99.90
71142;DHT22;58808;59.366;17.970;2023-02-03T08:29:41;-4.40;99.90
71142;DHT22;58808;59.366;17.970;2023-02-03T08:32:12;-4.40;99.90
71142;DHT22;58808;59.366;17.970;2023-02-03T08:34:38;-4.40;99.90
71142;DHT22;58808;59.366;17.970;2023-02-03T08:37:05;-4.40;99.90
71142;DHT22;58808;59.366;17.970;2023-02-03T08:39:31;-4.30;99.90
71142;DHT22;58808;59.366;17.970;2023-02-03T08:41:58;-4.20;99.90
71142;DHT22;58808;59.366;17.970;2023-02-03T08:44:26;-4.20;99.90
71142;DHT22;58808;59.366;17.970;2023-02-03T08:46:52;-4.10;99.90
71142;DHT22;58808;59.366;17.970;2023-02-03T08:49:19;-4.00;99.90
71142;DHT22;58808;59.366;17.970;2023-02-03T08:51:46;-4.00;99.90
71142;DHT22;58808;59.366;17.970;2023-02-03T08:54:13;-4.00;99.90
71142;DHT22;58808;59.366;17.970;2023-02-03T08:56:39;-3.90;99.90
71142;DHT22;58808;59.366;17.970;2023-02-03T08:59:05;-3.90;99.90
71142;DHT22;58808;59.366;17.970;2023-02-03T09:01:31;-3.90;99.90
71142;DHT22;58808;59.366;17.970;2023-02-03T09:03:57;-3.90;99.90
71142;DHT22;58808;59.366;17.970;2023-02-03T09:06:25;-3.80;99.90
71142;DHT22;58808;59.366;17.970;2023-02-03T09:08:51;-3.90;99.90
71142;DHT22;58808;59.366;17.970;2023-02-03T09:11:17;-3.80;99.90
71142;DHT22;58808;59.366;17.970;2023-02-03T09:13:43;-3.80;99.90
71142;DHT22;58808;59.366;17.970;2023-02-03T09:16:14;-3.80;99.90
71142;DHT22;58808;59.366;17.970;2023-02-03T09:18:44;-3.80;99.90
71142;DHT22;58808;59.366;17.970;2023-02-03T09:21:12;-3.80;99.90
71142;DHT22;58808;59.366;17.970;2023-02-03T09:23:39;-3.70;99.90
71142;DHT22;58808;59.366;17.970;2023-02-03T09:26:07;-3.60;99.90
71142;DHT22;58808;59.366;17.970;2023-02-03T09:28:34;-3.60;99.90
71142;DHT22;58808;59.366;17.970;2023-02-03T09:31:07;-3.50;99.90
71142;DHT22;58808;59.366;17.970;2023-02-03T09:33:34;-3.40;99.90
71142;DHT22;58808;59.366;17.970;2023-02-03T09:36:00;-3.30;99.90
71142;DHT22;58808;59.366;17.970;2023-02-03T09:38:26;-3.20;99.90
71142;DHT22;58808;59.366;17.970;2023-02-03T09:40:56;-3.10;99.90
71142;DHT22;58808;59.366;17.970;2023-02-03T09:43:32;-3.10;99.90
71142;DHT22;58808;59.366;17.970;2023-02-03T09:46:18;-3.00;99.90
71142;DHT22;58808;59.366;17.970;2023-02-03T09:49:28;-3.00;99.90
71142;DHT22;58808;59.366;17.970;2023-02-03T09:51:57;-2.90;99.90
71142;DHT22;58808;59.366;17.970;2023-02-03T09:54:41;-2.80;99.90
71142;DHT22;58808;59.366;17.970;2023-02-03T09:57:16;-2.70;99.90
71142;DHT22;58808;59.366;17.970;2023-02-03T09:59:43;-2.70;99.90
71142;DHT22;58808;59.366;17.970;2023-02-03T10:04:56;-2.60;99.90
71142;DHT22;58808;59.366;17.970;2023-02-03T10:10:27;-2.40;99.90
71142;DHT22;58808;59.366;17.970;2023-02-03T10:13:03;-2.30;99.90
71142;DHT22;58808;59.366;17.970;2023-02-03T10:15:47;-2.20;99.90
71142;DHT22;58808;59.366;17.970;2023-02-03T10:18:23;-2.10;99.90
71142;DHT22;58808;59.366;17.970;2023-02-03T10:20:59;-2.00;99.90
71142;DHT22;58808;59.366;17.970;2023-02-03T10:23:33;-1.90;99.90
71142;DHT22;58808;59.366;17.970;2023-02-03T10:26:03;-1.90;99.90
71142;DHT22;58808;59.366;17.970;2023-02-03T10:28:41;-1.90;99.90
71142;DHT22;58808;59.366;17.970;2023-02-03T10:31:19;-1.80;99.90
71142;DHT22;58808;59.366;17.970;2023-02-03T10:33:46;-1.70;99.90
71142;DHT22;58808;59.366;17.970;2023-02-03T10:36:22;-1.60;99.90
71142;DHT22;58808;59.366;17.970;2023-02-03T10:39:26;-1.60;99.90
71142;DHT22;58808;59.366;17.970;2023-02-03T10:41:54;-1.70;99.90
71142;DHT22;58808;59.366;17.970;2023-02-03T10:44:26;-1.70;99.90
71142;DHT22;58808;59.366;17.970;2023-02-03T10:46:55;-1.70;99.90
71142;DHT22;58808;59.366;17.970;2023-02-03T10:49:20;-1.60;99.90
71142;DHT22;58808;59.366;17.970;2023-02-03T10:51:51;-1.50;99.90
71142;DHT22;58808;59.366;17.970;2023-02-03T10:54:31;-1.50;99.90
71142;DHT22;58808;59.366;17.970;2023-02-03T10:57:05;-1.40;99.90
71142;DHT22;58808;59.366;17.970;2023-02-03T10:59:36;-1.40;99.90
71142;DHT22;58808;59.366;17.970;2023-02-03T11:02:26;-1.40;99.90
71142;DHT22;58808;59.366;17.970;2023-02-03T11:07:41;-1.50;99.90
71142;DHT22;58808;59.366;17.970;2023-02-03T11:10:38;-1.50;99.90
71142;DHT22;58808;59.366;17.970;2023-02-03T11:13:25;-1.40;99.90
71142;DHT22;58808;59.366;17.970;2023-02-03T11:15:54;-1.40;99.90
71142;DHT22;58808;59.366;17.970;2023-02-03T11:23:46;-1.30;99.90
71142;DHT22;58808;59.366;17.970;2023-02-03T11:26:14;-1.30;99.90
71142;DHT22;58808;59.366;17.970;2023-02-03T11:28:44;-1.20;99.90
71142;DHT22;58808;59.366;17.970;2023-02-03T11:31:31;-1.20;99.90
71142;DHT22;58808;59.366;17.970;2023-02-03T11:34:01;-1.00;99.90
71142;DHT22;58808;59.366;17.970;2023-02-03T11:36:30;-0.80;99.90
71142;DHT22;58808;59.366;17.970;2023-02-03T11:39:19;-0.60;99.90
71142;DHT22;58808;59.366;17.970;2023-02-03T11:41:46;-0.40;99.90
71142;DHT22;58808;59.366;17.970;2023-02-03T11:44:28;-0.20;99.90
71142;DHT22;58808;59.366;17.970;2023-02-03T11:47:06;0.00;99.90
71142;DHT22;58808;59.366;17.970;2023-02-03T11:50:11;0.10;99.90
71142;DHT22;58808;59.366;17.970;2023-02-03T11:52:55;0.30;99.90
71142;DHT22;58808;59.366;17.970;2023-02-03T12:03:28;0.70;99.90
71142;DHT22;58808;59.366;17.970;2023-02-03T12:17:53;0.90;99.90
71142;DHT22;58808;59.366;17.970;2023-02-03T12:25:43;0.60;99.90
71142;DHT22;58808;59.366;17.970;2023-02-03T12:33:49;0.40;99.90
71142;DHT22;58808;59.366;17.970;2023-02-03T12:36:27;0.30;99.90
71142;DHT22;58808;59.366;17.970;2023-02-03T12:39:28;0.20;99.90
71142;DHT22;58808;59.366;17.970;2023-02-03T12:42:06;0.20;99.90
71142;DHT22;58808;59.366;17.970;2023-02-03T12:47:31;0.20;99.90
71142;DHT22;58808;59.366;17.970;2023-02-03T12:50:08;0.10;99.90
71142;DHT22;58808;59.366;17.970;2023-02-03T12:52:46;0.10;99.90
71142;DHT22;58808;59.366;17.970;2023-02-03T12:57:54;0.00;99.90
71142;DHT22;58808;59.366;17.970;2023-02-03T13:00:46;0.10;99.90
71142;DHT22;58808;59.366;17.970;2023-02-03T13:06:01;0.00;99.90
71142;DHT22;58808;59.366;17.970;2023-02-03T13:08:49;0.00;99.90
71142;DHT22;58808;59.366;17.970;2023-02-03T13:11:22;0.00;99.90
71142;DHT22;58808;59.366;17.970;2023-02-03T13:14:03;-0.10;99.90
71142;DHT22;58808;59.366;17.970;2023-02-03T13:16:38;0.00;99.90
71142;DHT22;58808;59.366;17.970;2023-02-03T13:19:10;0.00;99.90
71142;DHT22;58808;59.366;17.970;2023-02-03T13:21:37;-0.10;99.90
71142;DHT22;58808;59.366;17.970;2023-02-03T13:24:04;-0.10;99.90
71142;DHT22;58808;59.366;17.970;2023-02-03T13:29:24;-0.10;99.90
71142;DHT22;58808;59.366;17.970;2023-02-03T13:40:23;-0.10;99.90
71142;DHT22;58808;59.366;17.970;2023-02-03T13:43:03;-0.10;99.90
71142;DHT22;58808;59.366;17.970;2023-02-03T13:45:40;-0.10;99.90
71142;DHT22;58808;59.366;17.970;2023-02-03T13:50:39;-0.20;99.90
71142;DHT22;58808;59.366;17.970;2023-02-03T13:53:05;-0.20;99.90
71142;DHT22;58808;59.366;17.970;2023-02-03T13:55:50;-0.20;99.90
71142;DHT22;58808;59.366;17.970;2023-02-03T13:58:32;-0.20;99.90
71142;DHT22;58808;59.366;17.970;2023-02-03T14:05:56;-0.30;99.90
71142;DHT22;58808;59.366;17.970;2023-02-03T14:16:39;-0.30;99.90
71142;DHT22;58808;59.366;17.970;2023-02-03T14:19:10;-0.40;99.90
71142;DHT22;58808;59.366;17.970;2023-02-03T14:21:47;-0.40;99.90
71142;DHT22;58808;59.366;17.970;2023-02-03T14:24:14;-0.40;99.90
71142;DHT22;58808;59.366;17.970;2023-02-03T14:26:43;-0.50;99.90
71142;DHT22;58808;59.366;17.970;2023-02-03T14:29:24;-0.50;99.90
71142;DHT22;58808;59.366;17.970;2023-02-03T14:34:19;-0.60;99.90
71142;DHT22;58808;59.366;17.970;2023-02-03T14:36:54;-0.60;99.90
71142;DHT22;58808;59.366;17.970;2023-02-03T14:42:09;-0.60;99.90
71142;DHT22;58808;59.366;17.970;2023-02-03T14:53:52;-0.70;99.90
71142;DHT22;58808;59.366;17.970;2023-02-03T14:58:53;-0.80;99.90
71142;DHT22;58808;59.366;17.970;2023-02-03T15:06:40;-0.90;99.90
71142;DHT22;58808;59.366;17.970;2023-02-03T15:12:00;-0.90;99.90
71142;DHT22;58808;59.366;17.970;2023-02-03T15:14:27;-1.00;99.90
71142;DHT22;58808;59.366;17.970;2023-02-03T15:19:48;-1.00;99.90
71142;DHT22;58808;59.366;17.970;2023-02-03T15:22:28;-1.00;99.90
71142;DHT22;58808;59.366;17.970;2023-02-03T15:25:02;-1.00;99.90
71142;DHT22;58808;59.366;17.970;2023-02-03T15:27:30;-1.00;99.90
71142;DHT22;58808;59.366;17.970;2023-02-03T15:29:56;-1.10;99.90
71142;DHT22;58808;59.366;17.970;2023-02-03T15:32:34;-1.10;99.90
71142;DHT22;58808;59.366;17.970;2023-02-03T15:35:06;-1.10;99.90
71142;DHT22;58808;59.366;17.970;2023-02-03T15:37:49;-1.10;99.90
71142;DHT22;58808;59.366;17.970;2023-02-03T15:40:19;-1.10;99.90
71142;DHT22;58808;59.366;17.970;2023-02-03T15:43:08;-1.10;99.90
71142;DHT22;58808;59.366;17.970;2023-02-03T15:45:43;-1.10;99.90
71142;DHT22;58808;59.366;17.970;2023-02-03T15:48:18;-1.10;99.90
71142;DHT22;58808;59.366;17.970;2023-02-03T15:50:54;-1.10;99.90
71142;DHT22;58808;59.366;17.970;2023-02-03T15:53:24;-1.10;99.90
71142;DHT22;58808;59.366;17.970;2023-02-03T15:55:58;-1.10;99.90
71142;DHT22;58808;59.366;17.970;2023-02-03T15:58:28;-1.10;99.90
71142;DHT22;58808;59.366;17.970;2023-02-03T16:00:57;-1.10;99.90
71142;DHT22;58808;59.366;17.970;2023-02-03T16:03:34;-1.10;99.90
71142;DHT22;58808;59.366;17.970;2023-02-03T16:08:44;-1.30;99.90
71142;DHT22;58808;59.366;17.970;2023-02-03T16:11:37;-1.30;99.90
71142;DHT22;58808;59.366;17.970;2023-02-03T16:14:10;-1.30;99.90
71142;DHT22;58808;59.366;17.970;2023-02-03T16:19:18;-1.30;99.90
71142;DHT22;58808;59.366;17.970;2023-02-03T16:35:52;-1.40;99.90
71142;DHT22;58808;59.366;17.970;2023-02-03T16:38:36;-1.40;99.90
71142;DHT22;58808;59.366;17.970;2023-02-03T16:41:20;-1.50;99.90
71142;DHT22;58808;59.366;17.970;2023-02-03T16:44:04;-1.50;99.90
71142;DHT22;58808;59.366;17.970;2023-02-03T16:46:48;-1.50;99.90
71142;DHT22;58808;59.366;17.970;2023-02-03T16:49:33;-1.50;99.90
71142;DHT22;58808;59.366;17.970;2023-02-03T16:52:17;-1.60;99.90
71142;DHT22;58808;59.366;17.970;2023-02-03T16:54:43;-1.60;99.90
71142;DHT22;58808;59.366;17.970;2023-02-03T16:57:08;-1.60;99.90
71142;DHT22;58808;59.366;17.970;2023-02-03T16:59:34;-1.60;99.90
71142;DHT22;58808;59.366;17.970;2023-02-03T17:02:00;-1.60;99.90
71142;DHT22;58808;59.366;17.970;2023-02-03T17:04:26;-1.60;99.90
71142;DHT22;58808;59.366;17.970;2023-02-03T17:06:51;-1.60;99.90
71142;DHT22;58808;59.366;17.970;2023-02-03T17:09:17;-1.50;99.90
71142;DHT22;58808;59.366;17.970;2023-02-03T17:11:47;-1.50;99.90
71142;DHT22;58808;59.366;17.970;2023-02-03T17:14:13;-1.50;99.90
71142;DHT22;58808;59.366;17.970;2023-02-03T17:16:39;-1.40;99.90
71142;DHT22;58808;59.366;17.970;2023-02-03T17:19:09;-1.40;99.90
71142;DHT22;58808;59.366;17.970;2023-02-03T17:21:35;-1.40;99.90
71142;DHT22;58808;59.366;17.970;2023-02-03T17:24:01;-1.30;99.90
71142;DHT22;58808;59.366;17.970;2023-02-03T17:26:27;-1.30;99.90
71142;DHT22;58808;59.366;17.970;2023-02-03T17:28:53;-1.30;99.90
71142;DHT22;58808;59.366;17.970;2023-02-03T17:31:19;-1.20;99.90
71142;DHT22;58808;59.366;17.970;2023-02-03T17:33:49;-1.30;99.90
71142;DHT22;58808;59.366;17.970;2023-02-03T17:36:17;-1.30;99.90
71142;DHT22;58808;59.366;17.970;2023-02-03T17:38:52;-1.20;99.90
71142;DHT22;58808;59.366;17.970;2023-02-03T17:41:20;-1.30;99.90
71142;DHT22;58808;59.366;17.970;2023-02-03T17:43:47;-1.20;99.90
71142;DHT22;58808;59.366;17.970;2023-02-03T17:46:16;-1.20;99.90
71142;DHT22;58808;59.366;17.970;2023-02-03T17:48:42;-1.20;99.90
71142;DHT22;58808;59.366;17.970;2023-02-03T17:51:18;-1.10;99.90
71142;DHT22;58808;59.366;17.970;2023-02-03T17:53:45;-1.10;99.90
71142;DHT22;58808;59.366;17.970;2023-02-03T17:56:16;-1.10;99.70
71142;DHT22;58808;59.366;17.970;2023-02-03T17:58:42;-1.10;98.40
71142;DHT22;58808;59.366;17.970;2023-02-03T18:01:19;-1.10;96.40
71142;DHT22;58808;59.366;17.970;2023-02-03T18:03:53;-1.10;96.00